createdAt,value
2022-08-01T00:01:41.893Z,99848.81
2022-08-01T00:04:10.804Z,99848.83
2022-08-01T00:06:40.408Z,99849.64
2022-08-01T00:09:11.887Z,99843.27
2022-08-01T00:11:43.217Z,99849.42
2022-08-01T00:14:13.245Z,99847.20
2022-08-01T00:16:42.292Z,99844.44
2022-08-01T00:19:11.365Z,99848.07
2022-08-01T00:21:40.442Z,99840.02
2022-08-01T00:24:14.331Z,99844.49
2022-08-01T00:26:44.507Z,99838.92
2022-08-01T00:30:10.387Z,99841.18
2022-08-01T00:31:46.539Z,99845.93
2022-08-01T00:34:16.146Z,99844.55
2022-08-01T00:36:45.536Z,99837.86
2022-08-01T00:39:14.956Z,99840.37
2022-08-01T00:41:44.846Z,99830.05
2022-08-01T00:44:13.936Z,99838.42
2022-08-01T00:46:44.509Z,99836.20
2022-08-01T00:49:14.618Z,99833.14
2022-08-01T00:51:43.729Z,99823.40
2022-08-01T00:54:13.211Z,99830.65
2022-08-01T00:56:43.329Z,99820.06
2022-08-01T00:59:14.153Z,99819.23
2022-08-01T01:01:50.075Z,99830.38
2022-08-01T01:04:20.087Z,99825.34
2022-08-01T01:07:08.922Z,99823.95
2022-08-01T01:09:59.870Z,99823.41
2022-08-01T01:13:00.782Z,99823.69
2022-08-01T01:15:42.600Z,99828.16
2022-08-01T01:18:19.934Z,99824.82
2022-08-01T01:21:03.665Z,99820.09
2022-08-01T01:23:54.992Z,99825.66
2022-08-01T01:27:09.450Z,99820.66
2022-08-01T01:29:58.639Z,99808.96
2022-08-01T01:32:40.426Z,99816.48
2022-08-01T01:35:14.428Z,99819.27
2022-08-01T01:37:43.892Z,99817.05
2022-08-01T01:40:13.189Z,99820.63
2022-08-01T01:42:43.036Z,99821.19
2022-08-01T01:45:12.419Z,99823.14
2022-08-01T01:47:41.724Z,99828.70
2022-08-01T01:50:11.557Z,99828.70
2022-08-01T01:52:40.882Z,99828.98
2022-08-01T01:55:10.880Z,99828.70
2022-08-01T01:57:42.530Z,99834.27
2022-08-01T02:00:13.892Z,99835.38
2022-08-01T02:02:43.355Z,99833.98
2022-08-01T02:05:13.538Z,99839.27
2022-08-01T02:07:43.883Z,99834.27
2022-08-01T02:10:13.994Z,99828.41
2022-08-01T02:12:43.878Z,99831.48
2022-08-01T02:15:15.287Z,99829.53
2022-08-01T02:17:48.074Z,99828.14
2022-08-01T02:20:17.214Z,99835.38
2022-08-01T02:22:53.870Z,99830.93
2022-08-01T02:25:37.630Z,99835.66
2022-08-01T02:28:11.403Z,99825.37
2022-08-01T02:30:43.866Z,99830.66
2022-08-01T02:33:21.998Z,99824.53
2022-08-01T02:36:31.362Z,99828.98
2022-08-01T02:38:27.645Z,99821.75
2022-08-01T02:40:58.430Z,99824.53
2022-08-01T02:43:29.131Z,99820.08
2022-08-01T02:46:01.427Z,99813.95
2022-08-01T02:48:31.324Z,99813.11
2022-08-01T02:51:02.026Z,99817.84
2022-08-01T02:53:43.030Z,99814.79
2022-08-01T02:56:07.574Z,99812.84
2022-08-01T02:58:38.030Z,99817.02
2022-08-01T03:01:09.633Z,99818.13
2022-08-01T03:03:40.691Z,99819.52
2022-08-01T03:06:09.813Z,99818.41
2022-08-01T03:08:39.994Z,99817.02
2022-08-01T03:11:09.472Z,99818.13
2022-08-01T03:13:38.877Z,99817.84
2022-08-01T03:16:08.159Z,99820.36
2022-08-01T03:18:37.709Z,99821.75
2022-08-01T03:21:08.790Z,99822.86
2022-08-01T03:23:38.619Z,99828.45
2022-08-01T03:26:08.487Z,99823.72
2022-08-01T03:28:38.818Z,99832.89
2022-08-01T03:31:08.862Z,99830.10
2022-08-01T03:33:39.209Z,99835.66
2022-08-01T03:36:10.612Z,99834.81
2022-08-01T03:38:40.756Z,99827.59
2022-08-01T03:41:22.831Z,99831.77
2022-08-01T03:44:03.915Z,99829.52
2022-08-01T03:46:51.263Z,99824.48
2022-08-01T03:49:24.582Z,99826.16
2022-08-01T03:51:54.251Z,99824.20
2022-08-01T03:54:25.731Z,99826.42
2022-08-01T03:56:55.126Z,99821.15
2022-08-01T03:59:26.070Z,99815.30
2022-08-01T04:01:55.540Z,99824.20
2022-08-01T04:04:25.418Z,99820.56
2022-08-01T04:06:55.276Z,99819.45
2022-08-01T04:09:24.634Z,99824.17
2022-08-01T04:11:53.680Z,99827.25
2022-08-01T04:14:24.743Z,99820.56
2022-08-01T04:16:53.839Z,99828.36
2022-08-01T04:19:23.557Z,99826.41
2022-08-01T04:21:53.485Z,99824.73
2022-08-01T04:24:22.739Z,99821.64
2022-08-01T04:26:52.248Z,99824.98
2022-08-01T04:29:22.547Z,99818.56
2022-08-01T04:31:51.673Z,99814.35
2022-08-01T04:34:22.770Z,99819.08
2022-08-01T04:36:53.900Z,99822.67
2022-08-01T04:39:25.152Z,99819.31
2022-08-01T04:41:55.965Z,99825.15
2022-08-01T04:44:30.992Z,99824.02
2022-08-01T04:47:04.408Z,99817.59
2022-08-01T04:49:48.856Z,99818.16
2022-08-01T04:52:07.262Z,99810.89
2022-08-01T04:54:39.149Z,99808.63
2022-08-01T04:57:08.967Z,99810.33
2022-08-01T04:59:43.510Z,99806.41
2022-08-01T05:02:16.145Z,99806.12
2022-08-01T05:04:46.434Z,99804.11
2022-08-01T05:07:16.640Z,99807.12
2022-08-01T05:09:47.169Z,99815.17
2022-08-01T05:12:17.476Z,99809.56
2022-08-01T05:14:47.679Z,99803.41
2022-08-01T05:17:18.040Z,99803.37
2022-08-01T05:19:47.450Z,99810.02
2022-08-01T05:22:17.734Z,99797.93
2022-08-01T05:24:48.244Z,99798.16
2022-08-01T05:27:19.589Z,99800.35
2022-08-01T05:29:49.190Z,99806.66
2022-08-01T05:32:18.456Z,99814.28
2022-08-01T05:34:47.394Z,99805.62
2022-08-01T05:37:16.142Z,99812.91
2022-08-01T05:39:47.751Z,99810.91
2022-08-01T05:42:16.997Z,99811.82
2022-08-01T05:44:46.161Z,99805.13
2022-08-01T05:47:16.286Z,99805.88
2022-08-01T05:49:46.920Z,99807.66
2022-08-01T05:52:16.893Z,99811.56
2022-08-01T05:54:46.368Z,99815.53
2022-08-01T05:57:17.035Z,99814.97
2022-08-01T05:59:47.007Z,99819.35
2022-08-01T06:02:16.725Z,99820.56
2022-08-01T06:04:46.156Z,99819.48
2022-08-01T06:07:16.320Z,99815.95
2022-08-01T06:09:46.564Z,99816.46
2022-08-01T06:12:16.600Z,99808.80
2022-08-01T06:14:47.060Z,99810.46
2022-08-01T06:17:16.909Z,99807.66
2022-08-01T06:19:46.666Z,99799.52
2022-08-01T06:22:16.431Z,99794.61
2022-08-01T06:24:46.672Z,99797.73
2022-08-01T06:27:21.483Z,99788.67
2022-08-01T06:29:51.211Z,99790.64
2022-08-01T06:32:26.918Z,99788.93
2022-08-01T06:34:51.870Z,99787.76
2022-08-01T06:37:22.273Z,99790.13
2022-08-01T06:39:52.611Z,99774.50
2022-08-01T06:42:22.243Z,99775.30
2022-08-01T06:44:52.304Z,99777.75
2022-08-01T06:47:21.963Z,99777.05
2022-08-01T06:49:51.143Z,99768.38
2022-08-01T06:52:21.268Z,99774.25
2022-08-01T06:54:50.485Z,99760.86
2022-08-01T06:57:19.734Z,99759.88
2022-08-01T06:59:54.220Z,99767.03
2022-08-01T07:02:20.389Z,99760.08
2022-08-01T07:04:51.257Z,99765.33
2022-08-01T07:07:20.931Z,99757.81
2022-08-01T07:09:52.391Z,99760.28
2022-08-01T07:12:22.728Z,99758.22
2022-08-01T07:14:52.663Z,99751.52
2022-08-01T07:17:22.043Z,99751.52
2022-08-01T07:19:51.360Z,99750.47
2022-08-01T07:22:22.449Z,99750.47
2022-08-01T07:24:54.490Z,99748.29
2022-08-01T07:27:23.985Z,99750.12
2022-08-01T07:29:55.222Z,99751.78
2022-08-01T07:32:25.653Z,99748.10
2022-08-01T07:34:55.677Z,99751.02
2022-08-01T07:37:48.622Z,99746.59
2022-08-01T07:39:57.892Z,99746.98
2022-08-01T07:42:27.204Z,99737.24
2022-08-01T07:44:57.077Z,99741.72
2022-08-01T07:47:27.013Z,99739.52
2022-08-01T07:50:02.354Z,99739.00
2022-08-01T07:52:32.881Z,99739.39
2022-08-01T07:55:02.196Z,99744.55
2022-08-01T07:57:32.515Z,99737.59
2022-08-01T08:00:02.345Z,99738.25
2022-08-01T08:02:34.036Z,99738.45
2022-08-01T08:05:04.841Z,99738.50
2022-08-01T08:07:37.313Z,99741.72
2022-08-01T08:10:07.685Z,99729.89
2022-08-01T08:12:36.545Z,99750.37
2022-08-01T08:15:07.456Z,99743.88
2022-08-01T08:17:36.631Z,99736.91
2022-08-01T08:20:09.507Z,99735.55
2022-08-01T08:22:40.511Z,99738.86
2022-08-01T08:25:09.985Z,99733.22
2022-08-01T08:27:41.984Z,99732.33
2022-08-01T08:30:12.260Z,99734.73
2022-08-01T08:32:41.384Z,99734.71
2022-08-01T08:35:12.365Z,99723.75
2022-08-01T08:37:47.901Z,99722.10
2022-08-01T08:40:18.049Z,99712.19
2022-08-01T08:42:47.266Z,99725.39
2022-08-01T08:45:16.785Z,99717.14
2022-08-01T08:47:48.129Z,99723.98
2022-08-01T08:50:17.928Z,99721.86
2022-08-01T08:52:48.980Z,99722.10
2022-08-01T08:55:20.025Z,99724.93
2022-08-01T08:57:50.120Z,99729.41
2022-08-01T09:00:19.769Z,99729.64
2022-08-01T09:02:54.935Z,99723.16
2022-08-01T09:05:39.207Z,99727.19
2022-08-01T09:07:59.968Z,99726.34
2022-08-01T09:10:30.088Z,99731.30
2022-08-01T09:13:12.986Z,99737.67
2022-08-01T09:15:50.924Z,99733.89
2022-08-01T09:18:42.223Z,99723.78
2022-08-01T09:21:20.000Z,99727.16
2022-08-01T09:23:55.793Z,99734.92
2022-08-01T09:26:34.645Z,99733.01
2022-08-01T09:29:06.653Z,99727.56
2022-08-01T09:31:47.530Z,99730.21
2022-08-01T09:34:19.936Z,99729.06
2022-08-01T09:36:59.327Z,99730.66
2022-08-01T09:39:40.549Z,99726.28
2022-08-01T09:42:28.889Z,99725.43
2022-08-01T09:44:57.261Z,99734.73
2022-08-01T09:47:40.686Z,99727.27
2022-08-01T09:50:11.585Z,99733.50
2022-08-01T09:52:41.460Z,99727.02
2022-08-01T09:55:11.735Z,99729.02
2022-08-01T09:57:42.329Z,99729.16
2022-08-01T10:00:35.757Z,99717.44
2022-08-01T10:02:50.559Z,99721.44
2022-08-01T10:05:37.224Z,99734.91
2022-08-01T10:08:07.526Z,99725.09
2022-08-01T10:10:38.340Z,99727.95
2022-08-01T10:13:09.868Z,99722.78
2022-08-01T10:15:40.109Z,99726.74
2022-08-01T10:18:16.872Z,99717.51
2022-08-01T10:20:43.219Z,99722.64
2022-08-01T10:23:13.530Z,99713.92
2022-08-01T10:25:46.725Z,99713.92
2022-08-01T10:28:23.858Z,99709.79
2022-08-01T10:30:49.686Z,99715.03
2022-08-01T10:33:49.937Z,99712.06
2022-08-01T10:35:54.813Z,99704.07
2022-08-01T10:38:26.006Z,99710.38
2022-08-01T10:40:56.109Z,99702.52
2022-08-01T10:43:26.785Z,99701.31
2022-08-01T10:45:56.664Z,99712.23
2022-08-01T10:48:41.341Z,99705.58
2022-08-01T10:51:17.471Z,99699.11
2022-08-01T10:53:54.863Z,99699.11
2022-08-01T10:56:26.830Z,99696.28
2022-08-01T10:59:06.181Z,99697.45
2022-08-01T11:01:37.644Z,99695.70
2022-08-01T11:04:16.814Z,99701.00
2022-08-01T11:07:06.516Z,99696.66
2022-08-01T11:09:51.766Z,99697.14
2022-08-01T11:12:23.283Z,99709.58
2022-08-01T11:15:08.084Z,99703.89
2022-08-01T11:17:47.466Z,99703.20
2022-08-01T11:20:31.779Z,99699.69
2022-08-01T11:23:07.088Z,99694.83
2022-08-01T11:26:04.639Z,99706.91
2022-08-01T11:28:32.510Z,99708.52
2022-08-01T11:31:17.821Z,99702.39
2022-08-01T11:33:49.909Z,99702.39
2022-08-01T11:36:42.587Z,99702.25
2022-08-01T11:39:13.217Z,99706.89
2022-08-01T11:41:39.581Z,99706.89
2022-08-01T11:44:14.412Z,99705.23
2022-08-01T11:47:10.166Z,99704.97
2022-08-01T11:49:50.041Z,99698.94
2022-08-01T11:52:40.397Z,99702.53
2022-08-01T11:55:11.854Z,99702.53
2022-08-01T11:57:44.137Z,99709.05
2022-08-01T12:00:19.173Z,99704.61
2022-08-01T12:02:48.451Z,99695.35
2022-08-01T12:05:21.099Z,99700.22
2022-08-01T12:07:54.325Z,99700.52
2022-08-01T12:10:29.177Z,99703.48
2022-08-01T12:13:04.074Z,99696.42
2022-08-01T12:15:36.387Z,99698.83
2022-08-01T12:18:08.188Z,99698.97
2022-08-01T12:20:56.049Z,99695.36
2022-08-01T12:23:16.695Z,99701.63
2022-08-01T12:25:50.083Z,99692.19
2022-08-01T12:28:19.530Z,99694.19
2022-08-01T12:30:49.993Z,99694.19
2022-08-01T12:33:21.035Z,99697.59
2022-08-01T12:35:51.201Z,99697.59
2022-08-01T12:38:24.232Z,99707.48
2022-08-01T12:40:54.921Z,99699.65
2022-08-01T12:43:27.986Z,99698.44
2022-08-01T12:46:00.635Z,99694.20
2022-08-01T12:48:31.419Z,99702.48
2022-08-01T12:51:04.107Z,99702.48
2022-08-01T12:53:40.628Z,99697.97
2022-08-01T12:56:08.918Z,99691.19
2022-08-01T12:58:40.399Z,99691.19
2022-08-01T13:01:13.181Z,99691.97
2022-08-01T13:03:46.445Z,99694.90
2022-08-01T13:06:17.801Z,99694.80
2022-08-01T13:08:48.571Z,99691.59
2022-08-01T13:11:19.659Z,99682.41
2022-08-01T13:13:54.018Z,99682.41
2022-08-01T13:16:30.421Z,99686.59
2022-08-01T13:19:00.033Z,99684.03
2022-08-01T13:21:53.368Z,99679.89
2022-08-01T13:24:11.553Z,99675.70
2022-08-01T13:26:49.410Z,99682.61
2022-08-01T13:29:23.865Z,99677.15
2022-08-01T13:31:53.497Z,99678.59
2022-08-01T13:34:34.111Z,99684.52
2022-08-01T13:37:03.840Z,99681.51
2022-08-01T13:39:48.742Z,99682.27
2022-08-01T13:42:19.622Z,99680.22
2022-08-01T13:44:50.578Z,99677.98
2022-08-01T13:47:20.032Z,99679.14
2022-08-01T13:49:51.092Z,99680.39
2022-08-01T13:52:19.881Z,99682.14
2022-08-01T13:54:49.025Z,99671.69
2022-08-01T13:57:19.928Z,99668.88
2022-08-01T13:59:48.986Z,99678.74
2022-08-01T14:02:18.382Z,99674.76
2022-08-01T14:04:47.931Z,99686.53
2022-08-01T14:07:19.447Z,99686.10
2022-08-01T14:09:57.860Z,99681.23
2022-08-01T14:12:20.569Z,99686.62
2022-08-01T14:14:51.204Z,99689.44
2022-08-01T14:17:21.209Z,99686.95
2022-08-01T14:19:50.738Z,99689.44
2022-08-01T14:22:21.480Z,99691.58
2022-08-01T14:24:50.568Z,99688.27
2022-08-01T14:27:22.070Z,99679.22
2022-08-01T14:30:00.458Z,99683.54
2022-08-01T14:32:28.881Z,99694.50
2022-08-01T14:34:54.807Z,99689.63
2022-08-01T14:37:29.138Z,99685.48
2022-08-01T14:39:56.305Z,99691.94
2022-08-01T14:42:26.102Z,99694.27
2022-08-01T14:44:55.990Z,99691.55
2022-08-01T14:47:25.656Z,99694.34
2022-08-01T14:49:56.120Z,99694.17
2022-08-01T14:52:25.696Z,99697.66
2022-08-01T14:54:54.994Z,99697.41
2022-08-01T14:57:24.453Z,99698.56
2022-08-01T14:59:54.043Z,99691.53
2022-08-01T15:02:23.263Z,99696.00
2022-08-01T15:04:53.500Z,99700.14
2022-08-01T15:07:23.551Z,99709.17
2022-08-01T15:09:53.095Z,99710.78
2022-08-01T15:12:23.810Z,99716.73
2022-08-01T15:14:52.989Z,99721.02
2022-08-01T15:17:30.137Z,99720.35
2022-08-01T15:20:03.660Z,99730.20
2022-08-01T15:22:33.985Z,99731.48
2022-08-01T15:25:03.835Z,99725.91
2022-08-01T15:27:34.716Z,99725.55
2022-08-01T15:30:05.210Z,99728.52
2022-08-01T15:32:34.730Z,99725.23
2022-08-01T15:35:05.690Z,99725.45
2022-08-01T15:37:42.272Z,99733.28
2022-08-01T15:40:09.655Z,99724.23
2022-08-01T15:42:39.541Z,99724.30
2022-08-01T15:45:20.703Z,99720.52
2022-08-01T15:47:41.130Z,99727.36
2022-08-01T15:50:11.037Z,99730.56
2022-08-01T15:52:40.521Z,99728.97
2022-08-01T15:55:11.149Z,99736.58
2022-08-01T15:57:43.153Z,99738.05
2022-08-01T16:00:14.725Z,99742.66
2022-08-01T16:02:43.663Z,99743.69
2022-08-01T16:05:13.671Z,99743.53
2022-08-01T16:07:59.424Z,99746.98
2022-08-01T16:10:17.501Z,99744.81
2022-08-01T16:12:46.757Z,99757.20
2022-08-01T16:15:16.707Z,99752.22
2022-08-01T16:17:46.273Z,99759.82
2022-08-01T16:20:15.172Z,99755.03
2022-08-01T16:22:44.949Z,99750.81
2022-08-01T16:25:15.385Z,99761.03
2022-08-01T16:27:46.427Z,99760.84
2022-08-01T16:30:16.090Z,99765.95
2022-08-01T16:32:47.954Z,99764.86
2022-08-01T16:35:18.688Z,99763.27
2022-08-01T16:37:48.544Z,99764.56
2022-08-01T16:40:19.339Z,99767.76
2022-08-01T16:42:49.643Z,99769.42
2022-08-01T16:45:21.422Z,99762.52
2022-08-01T16:47:52.289Z,99771.00
2022-08-01T16:50:27.972Z,99767.42
2022-08-01T16:52:53.685Z,99766.08
2022-08-01T16:55:24.112Z,99770.16
2022-08-01T16:57:55.209Z,99775.57
2022-08-01T17:00:26.183Z,99783.25
2022-08-01T17:02:57.237Z,99791.16
2022-08-01T17:05:28.671Z,99786.17
2022-08-01T17:07:59.171Z,99788.77
2022-08-01T17:10:29.400Z,99791.06
2022-08-01T17:12:58.836Z,99794.19
2022-08-01T17:15:34.418Z,99789.20
2022-08-01T17:18:02.867Z,99781.20
2022-08-01T17:20:32.027Z,99785.73
2022-08-01T17:23:02.075Z,99783.28
2022-08-01T17:25:32.042Z,99784.17
2022-08-01T17:28:01.612Z,99781.45
2022-08-01T17:30:31.841Z,99780.92
2022-08-01T17:33:02.381Z,99786.64
2022-08-01T17:35:32.592Z,99786.17
2022-08-01T17:38:02.352Z,99785.97
2022-08-01T17:40:40.263Z,99793.92
2022-08-01T17:43:03.265Z,99791.73
2022-08-01T17:45:39.331Z,99804.67
2022-08-01T17:48:05.475Z,99810.59
2022-08-01T17:50:36.188Z,99810.64
2022-08-01T17:53:06.388Z,99816.00
2022-08-01T17:55:55.516Z,99815.74
2022-08-01T17:58:09.526Z,99812.98
2022-08-01T18:00:39.361Z,99819.43
2022-08-01T18:03:08.643Z,99821.76
2022-08-01T18:05:38.486Z,99823.47
2022-08-01T18:08:08.065Z,99817.95
2022-08-01T18:10:40.030Z,99824.45
2022-08-01T18:13:11.037Z,99826.41
2022-08-01T18:15:41.016Z,99828.70
2022-08-01T18:18:12.815Z,99826.51
2022-08-01T18:20:42.754Z,99826.55
2022-08-01T18:23:12.680Z,99829.92
2022-08-01T18:25:42.073Z,99828.57
2022-08-01T18:28:23.457Z,99829.45
2022-08-01T18:30:43.727Z,99828.66
2022-08-01T18:33:13.784Z,99839.35
2022-08-01T18:35:53.482Z,99839.10
2022-08-01T18:38:17.525Z,99843.92
2022-08-01T18:40:47.052Z,99849.27
2022-08-01T18:43:16.374Z,99849.78
2022-08-01T18:45:46.817Z,99849.52
2022-08-01T18:48:17.400Z,99848.82
2022-08-01T18:50:47.297Z,99850.66
2022-08-01T18:53:18.869Z,99852.10
2022-08-01T18:55:48.628Z,99851.88
2022-08-01T18:58:18.372Z,99852.80
2022-08-01T19:00:48.512Z,99849.16
2022-08-01T19:03:20.488Z,99849.99
2022-08-01T19:05:50.102Z,99842.42
2022-08-01T19:08:20.033Z,99841.67
2022-08-01T19:10:49.609Z,99849.89
2022-08-01T19:13:20.621Z,99849.09
2022-08-01T19:15:50.205Z,99844.40
2022-08-01T19:18:19.386Z,99840.02
2022-08-01T19:20:49.486Z,99844.74
2022-08-01T19:23:37.898Z,99845.58
2022-08-01T19:26:13.114Z,99856.55
2022-08-01T19:28:47.815Z,99856.84
2022-08-01T19:31:17.333Z,99859.95
2022-08-01T19:33:48.170Z,99856.32
2022-08-01T19:36:17.952Z,99857.98
2022-08-01T19:38:47.311Z,99856.32
2022-08-01T19:41:17.965Z,99862.19
2022-08-01T19:43:47.921Z,99863.32
2022-08-01T19:46:18.174Z,99857.45
2022-08-01T19:48:53.592Z,99856.36
2022-08-01T19:51:22.734Z,99862.26
2022-08-01T19:53:55.191Z,99862.26
2022-08-01T19:56:27.216Z,99860.03
2022-08-01T19:59:00.317Z,99862.03
2022-08-01T20:01:29.605Z,99861.57
2022-08-01T20:03:59.831Z,99865.50
2022-08-01T20:06:31.266Z,99866.11
2022-08-01T20:09:01.380Z,99868.94
2022-08-01T20:11:31.190Z,99870.64
2022-08-01T20:14:01.190Z,99864.84
2022-08-01T20:16:32.409Z,99868.23
2022-08-01T20:19:02.145Z,99866.03
2022-08-01T20:21:31.111Z,99867.70
2022-08-01T20:24:02.458Z,99866.03
2022-08-01T20:26:32.599Z,99866.37
2022-08-01T20:29:02.738Z,99867.20
2022-08-01T20:31:42.848Z,99860.20
2022-08-01T20:34:06.273Z,99865.47
2022-08-01T20:36:36.408Z,99867.97
2022-08-01T20:39:05.761Z,99866.88
2022-08-01T20:41:37.970Z,99864.67
2022-08-01T20:44:07.350Z,99871.70
2022-08-01T20:46:38.992Z,99866.94
2022-08-01T20:49:09.429Z,99872.27
2022-08-01T20:51:42.373Z,99867.80
2022-08-01T20:54:10.738Z,99874.53
2022-08-01T20:56:48.294Z,99872.86
2022-08-01T21:00:01.781Z,99879.30
2022-08-01T21:02:51.594Z,99872.86
2022-08-01T21:05:39.887Z,99874.29
2022-08-01T21:08:24.723Z,99873.45
2022-08-01T21:10:59.451Z,99870.66
2022-08-01T21:13:42.457Z,99868.12
2022-08-01T21:16:24.153Z,99875.12
2022-08-01T21:19:17.939Z,99867.59
2022-08-01T21:21:28.388Z,99869.02
2022-08-01T21:24:05.200Z,99867.12
2022-08-01T21:26:35.907Z,99876.11
2022-08-01T21:29:07.087Z,99868.31
2022-08-01T21:31:37.818Z,99863.84
2022-08-01T21:34:09.420Z,99863.25
2022-08-01T21:36:39.589Z,99860.45
2022-08-01T21:39:09.686Z,99857.95
2022-08-01T21:42:03.360Z,99857.16
2022-08-01T21:44:13.133Z,99852.48
2022-08-01T21:46:42.838Z,99851.67
2022-08-01T21:49:13.307Z,99852.83
2022-08-01T21:51:52.117Z,99843.07
2022-08-01T21:54:42.058Z,99852.34
2022-08-01T21:57:57.667Z,99852.07
2022-08-01T22:00:26.938Z,99853.47
2022-08-01T22:03:19.999Z,99853.23
2022-08-01T22:05:51.641Z,99854.70
2022-08-01T22:08:36.842Z,99852.52
2022-08-01T22:11:08.950Z,99850.86
2022-08-01T22:13:39.547Z,99846.64
2022-08-01T22:16:09.680Z,99841.59
2022-08-01T22:18:40.064Z,99842.96
2022-08-01T22:21:09.698Z,99843.47
2022-08-01T22:23:39.946Z,99844.58
2022-08-01T22:26:10.790Z,99842.91
2022-08-01T22:28:40.991Z,99849.09
2022-08-01T22:31:11.801Z,99854.17
2022-08-01T22:33:46.225Z,99845.52
2022-08-01T22:36:15.482Z,99855.30
2022-08-01T22:38:49.403Z,99849.70
2022-08-01T22:41:22.008Z,99846.61
2022-08-01T22:44:02.311Z,99851.05
2022-08-01T22:47:03.175Z,99842.09
2022-08-01T22:49:40.462Z,99840.44
2022-08-01T22:52:23.029Z,99841.80
2022-08-01T22:54:59.006Z,99840.67
2022-08-01T22:57:48.589Z,99844.87
2022-08-01T23:00:16.493Z,99840.14
2022-08-01T23:02:55.353Z,99841.86
2022-08-01T23:05:26.070Z,99836.83
2022-08-01T23:07:56.898Z,99832.64
2022-08-01T23:10:27.875Z,99829.30
2022-08-01T23:12:57.711Z,99833.25
2022-08-01T23:15:27.155Z,99836.91
2022-08-01T23:17:57.420Z,99822.69
2022-08-01T23:20:27.421Z,99828.57
2022-08-01T23:22:57.598Z,99828.89
2022-08-01T23:25:27.308Z,99824.75
2022-08-01T23:28:05.345Z,99821.69
2022-08-01T23:30:31.705Z,99819.16
2022-08-01T23:33:01.520Z,99811.31
2022-08-01T23:35:31.818Z,99806.27
2022-08-01T23:38:03.899Z,99815.73
2022-08-01T23:40:34.265Z,99814.59
2022-08-01T23:43:05.053Z,99809.28
2022-08-01T23:46:01.738Z,99804.25
2022-08-01T23:48:06.431Z,99808.45
2022-08-01T23:50:36.552Z,99810.38
2022-08-01T23:53:06.985Z,99806.75
2022-08-01T23:55:37.586Z,99805.63
2022-08-01T23:58:07.835Z,99807.59
